TimeEDT,TemperatureF,Dew PointF,Humidity,Sea Level PressureIn,VisibilityMPH,Wind Direction,Wind SpeedMPH,Gust SpeedMPH,PrecipitationIn,Events,Conditions,WindDirDegrees,DateUTC
12:15 AM,60.1,60.1,100,30.22,4.0,North,-9999.0,-,N/A,,Clear,0,2013-10-03 04:15:00
12:35 AM,58.8,58.8,100,30.22,7.0,North,-9999.0,-,N/A,,Clear,0,2013-10-03 04:35:00
12:55 AM,58.8,58.8,100,30.21,5.0,North,-9999.0,-,N/A,,Clear,0,2013-10-03 04:55:00
1:15 AM,59.4,59.4,100,30.21,4.0,North,-9999.0,-,N/A,,Clear,0,2013-10-03 05:15:00
1:35 AM,59.4,59.4,100,30.21,4.0,North,-9999.0,-,N/A,,Clear,0,2013-10-03 05:35:00
1:55 AM,59.4,59.4,100,30.21,4.0,North,-9999.0,-,N/A,,Clear,0,2013-10-03 05:55:00
2:15 AM,59.0,59.0,100,30.21,3.0,North,-9999.0,-,N/A,,Clear,0,2013-10-03 06:15:00
2:35 AM,58.5,58.5,100,30.21,3.0,North,-9999.0,-,N/A,,Scattered Clouds,0,2013-10-03 06:35:00
2:55 AM,58.6,58.6,100,30.21,4.0,North,-9999.0,-,N/A,,Clear,0,2013-10-03 06:55:00
3:15 AM,58.5,58.5,100,30.21,4.0,North,-9999.0,-,N/A,,Clear,0,2013-10-03 07:15:00
3:35 AM,58.5,58.5,100,30.21,4.0,North,-9999.0,-,N/A,,Mostly Cloudy,0,2013-10-03 07:35:00
3:55 AM,59.0,59.0,100,30.21,5.0,North,-9999.0,-,N/A,,Overcast,0,2013-10-03 07:55:00
4:15 AM,58.3,58.3,100,30.20,4.0,North,-9999.0,-,N/A,,Scattered Clouds,0,2013-10-03 08:15:00
4:35 AM,58.1,58.1,100,30.20,4.0,North,-9999.0,-,N/A,,Scattered Clouds,0,2013-10-03 08:35:00
4:55 AM,58.5,58.5,100,30.20,5.0,North,-9999.0,-,N/A,,Mostly Cloudy,0,2013-10-03 08:55:00
5:15 AM,58.5,58.5,100,30.20,7.0,North,-9999.0,-,N/A,,Mostly Cloudy,0,2013-10-03 09:15:00
5:35 AM,58.3,58.3,100,30.20,5.0,North,-9999.0,-,N/A,,Mostly Cloudy,0,2013-10-03 09:35:00
5:55 AM,58.1,58.1,100,30.21,5.0,North,-9999.0,-,N/A,,Overcast,0,2013-10-03 09:55:00
6:15 AM,58.8,58.8,100,30.21,1.5,North,-9999.0,-,N/A,,Overcast,0,2013-10-03 10:15:00
6:35 AM,58.6,58.6,100,30.21,2.5,North,-9999.0,-,N/A,,Overcast,0,2013-10-03 10:35:00
6:55 AM,58.3,58.3,100,30.21,3.0,North,-9999.0,-,N/A,,Mostly Cloudy,0,2013-10-03 10:55:00
7:15 AM,58.1,58.1,100,30.21,1.8,North,-9999.0,-,N/A,,Overcast,0,2013-10-03 11:15:00
7:35 AM,58.1,58.1,100,30.22,4.0,North,-9999.0,-,N/A,,Scattered Clouds,0,2013-10-03 11:35:00
7:55 AM,58.3,58.3,100,30.22,4.0,North,-9999.0,-,N/A,,Scattered Clouds,0,2013-10-03 11:55:00
8:15 AM,58.5,58.5,100,30.23,4.0,North,-9999.0,-,N/A,,Mostly Cloudy,0,2013-10-03 12:15:00
8:35 AM,59.4,59.4,100,30.23,7.0,North,-9999.0,-,N/A,,Mostly Cloudy,0,2013-10-03 12:35:00
8:55 AM,59.9,59.9,100,30.23,7.0,North,-9999.0,-,N/A,,Scattered Clouds,0,2013-10-03 12:55:00
9:15 AM,60.8,60.8,100,30.23,10.0,North,-9999.0,-,N/A,,Clear,0,2013-10-03 13:15:00
9:35 AM,62.1,62.1,100,30.23,10.0,North,-9999.0,-,N/A,,Clear,0,2013-10-03 13:35:00
9:55 AM,62.8,62.4,99,30.23,10.0,North,-9999.0,-,N/A,,Clear,0,2013-10-03 13:55:00
10:15 AM,67.1,63.7,89,30.23,10.0,North,-9999.0,-,N/A,,Clear,0,2013-10-03 14:15:00
10:35 AM,68.9,63.7,83,30.23,10.0,North,-9999.0,-,N/A,,Clear,0,2013-10-03 14:35:00
10:55 AM,73.4,65.1,75,30.22,10.0,North,-9999.0,-,N/A,,Clear,0,2013-10-03 14:55:00
11:15 AM,72.0,65.3,79,30.22,10.0,North,-9999.0,-,N/A,,Clear,0,2013-10-03 15:15:00
11:35 AM,73.0,66.4,80,30.22,10.0,North,-9999.0,-,N/A,,Clear,0,2013-10-03 15:35:00
11:55 AM,74.8,67.1,77,30.22,10.0,North,-9999.0,-,N/A,,Clear,0,2013-10-03 15:55:00
12:15 PM,76.6,67.6,74,30.22,10.0,North,-9999.0,-,N/A,,Clear,0,2013-10-03 16:15:00
12:35 PM,76.6,67.1,72,30.21,10.0,North,-9999.0,-,N/A,,Clear,0,2013-10-03 16:35:00
12:55 PM,78.1,68.0,71,30.21,10.0,North,-9999.0,-,N/A,,Clear,0,2013-10-03 16:55:00
1:15 PM,78.8,67.3,68,30.20,10.0,North,-9999.0,-,N/A,,Clear,0,2013-10-03 17:15:00
1:35 PM,78.1,66.7,68,30.19,10.0,North,-9999.0,-,N/A,,Clear,0,2013-10-03 17:35:00
1:55 PM,79.3,66.4,64,30.18,10.0,North,-9999.0,-,N/A,,Clear,0,2013-10-03 17:55:00
2:15 PM,79.2,66.0,64,30.17,10.0,North,-9999.0,-,N/A,,Clear,0,2013-10-03 18:15:00
2:35 PM,81.3,65.1,58,30.16,10.0,North,-9999.0,-,N/A,,Clear,0,2013-10-03 18:35:00
2:55 PM,81.7,64.6,56,30.16,10.0,North,-9999.0,-,N/A,,Clear,0,2013-10-03 18:55:00
3:15 PM,81.5,63.9,55,30.16,10.0,North,-9999.0,-,N/A,,Scattered Clouds,0,2013-10-03 19:15:00
3:35 PM,80.8,64.9,58,30.16,10.0,North,-9999.0,-,N/A,,Scattered Clouds,0,2013-10-03 19:35:00
3:55 PM,81.3,65.1,58,30.15,10.0,North,-9999.0,-,N/A,,Scattered Clouds,0,2013-10-03 19:55:00
4:15 PM,80.8,66.4,61,30.15,10.0,North,-9999.0,-,N/A,,Clear,0,2013-10-03 20:15:00
4:35 PM,79.9,66.2,63,30.15,10.0,North,-9999.0,-,N/A,,Clear,0,2013-10-03 20:35:00
4:55 PM,80.1,66.9,64,30.15,10.0,North,-9999.0,-,N/A,,Clear,0,2013-10-03 20:55:00
5:15 PM,77.7,68.4,73,30.15,10.0,North,-9999.0,-,N/A,,Clear,0,2013-10-03 21:15:00
5:35 PM,73.8,68.7,84,30.15,10.0,North,-9999.0,-,N/A,,Clear,0,2013-10-03 21:35:00
5:55 PM,73.0,68.9,87,30.16,10.0,North,-9999.0,-,N/A,,Clear,0,2013-10-03 21:55:00
6:15 PM,72.3,68.0,86,30.16,10.0,North,-9999.0,-,N/A,,Clear,0,2013-10-03 22:15:00
6:35 PM,71.1,68.2,91,30.16,10.0,North,-9999.0,-,N/A,,Clear,0,2013-10-03 22:35:00
6:55 PM,69.8,67.6,93,30.16,10.0,North,-9999.0,-,N/A,,Clear,0,2013-10-03 22:55:00
7:15 PM,68.5,67.3,96,30.16,10.0,North,-9999.0,-,N/A,,Clear,0,2013-10-03 23:15:00
7:35 PM,67.5,66.6,97,30.16,7.0,North,-9999.0,-,N/A,,Clear,0,2013-10-03 23:35:00
7:55 PM,67.1,66.4,98,30.16,7.0,North,-9999.0,-,N/A,,Clear,0,2013-10-03 23:55:00
8:15 PM,66.2,65.8,99,30.16,7.0,North,-9999.0,-,N/A,,Clear,0,2013-10-04 00:15:00
8:35 PM,65.7,65.5,99,30.16,5.0,North,-9999.0,-,N/A,,Clear,0,2013-10-04 00:35:00
8:55 PM,65.3,65.3,100,30.17,5.0,North,-9999.0,-,N/A,,Clear,0,2013-10-04 00:55:00
9:15 PM,64.6,64.6,100,30.17,4.0,North,-9999.0,-,N/A,,Clear,0,2013-10-04 01:15:00
9:35 PM,64.4,64.4,100,30.18,4.0,North,-9999.0,-,N/A,,Clear,0,2013-10-04 01:35:00
9:55 PM,63.9,63.9,100,30.18,5.0,North,-9999.0,-,N/A,,Clear,0,2013-10-04 01:55:00
10:15 PM,63.5,63.5,100,30.19,4.0,North,-9999.0,-,N/A,,Clear,0,2013-10-04 02:15:00
10:35 PM,63.1,63.1,100,30.19,5.0,North,-9999.0,-,N/A,,Clear,0,2013-10-04 02:35:00
10:55 PM,62.8,62.8,100,30.19,5.0,North,-9999.0,-,N/A,,Clear,0,2013-10-04 02:55:00
11:15 PM,62.8,62.8,100,30.20,4.0,North,-9999.0,-,N/A,,Clear,0,2013-10-04 03:15:00
11:35 PM,62.2,62.2,100,30.20,5.0,North,-9999.0,-,N/A,,Clear,0,2013-10-04 03:35:00